createdAt,value
2019-03-15T00:00:45.509Z,0.00
2019-03-15T00:01:45.435Z,0.00
2019-03-15T00:02:45.394Z,0.00
2019-03-15T00:03:45.385Z,0.00
2019-03-15T00:04:45.377Z,0.00
2019-03-15T00:05:45.363Z,0.00
2019-03-15T00:06:45.414Z,0.00
2019-03-15T00:07:45.340Z,0.00
2019-03-15T00:08:45.344Z,0.00
2019-03-15T00:09:45.317Z,0.00
2019-03-15T00:10:45.302Z,0.00
2019-03-15T00:11:45.302Z,0.00
2019-03-15T00:12:45.298Z,0.00
2019-03-15T00:13:45.282Z,0.00
2019-03-15T00:14:45.261Z,0.00
2019-03-15T00:15:45.251Z,0.00
2019-03-15T00:16:45.247Z,0.00
2019-03-15T00:17:45.246Z,0.00
2019-03-15T00:18:45.218Z,0.00
2019-03-15T00:19:45.203Z,0.00
2019-03-15T00:20:45.198Z,0.00
2019-03-15T00:21:45.183Z,0.00
2019-03-15T00:22:45.181Z,0.00
2019-03-15T00:23:45.209Z,0.00
2019-03-15T00:24:45.151Z,0.00
2019-03-15T00:25:45.137Z,0.00
2019-03-15T00:26:45.134Z,0.00
2019-03-15T00:27:45.132Z,0.00
2019-03-15T00:28:45.123Z,0.00
2019-03-15T00:29:45.095Z,0.00
2019-03-15T00:30:45.082Z,0.00
2019-03-15T00:31:45.080Z,0.00
2019-03-15T00:32:45.069Z,0.00
2019-03-15T00:33:45.067Z,0.00
2019-03-15T00:34:45.062Z,0.00
2019-03-15T00:35:45.033Z,0.00
2019-03-15T00:36:45.021Z,0.00
2019-03-15T00:37:45.028Z,0.00
2019-03-15T00:38:45.015Z,0.00
2019-03-15T00:39:45.003Z,0.00
2019-03-15T00:40:44.971Z,0.00
2019-03-15T00:41:44.973Z,0.00
2019-03-15T00:42:44.956Z,0.00
2019-03-15T00:43:44.953Z,0.00
2019-03-15T00:44:44.933Z,0.00
2019-03-15T00:45:44.937Z,0.00
2019-03-15T00:46:44.925Z,0.00
2019-03-15T00:47:44.904Z,0.00
2019-03-15T00:48:44.881Z,0.00
2019-03-15T00:49:44.885Z,0.00
2019-03-15T00:50:44.881Z,0.00
2019-03-15T00:51:44.859Z,0.00
2019-03-15T00:52:44.867Z,0.00
2019-03-15T00:53:44.840Z,0.00
2019-03-15T00:54:44.881Z,0.00
2019-03-15T00:55:45.475Z,0.00
2019-03-15T00:56:44.851Z,0.00
2019-03-15T00:57:44.791Z,0.00
2019-03-15T00:58:44.841Z,0.00
2019-03-15T00:59:44.799Z,0.00
2019-03-15T01:00:45.008Z,0.00
2019-03-15T01:01:45.565Z,0.00
2019-03-15T01:02:44.732Z,0.00
2019-03-15T01:03:44.800Z,0.00
2019-03-15T01:04:44.845Z,0.00
2019-03-15T01:05:44.841Z,0.00
2019-03-15T01:06:44.697Z,0.00
2019-03-15T01:07:44.682Z,0.00
2019-03-15T01:08:44.659Z,0.00
2019-03-15T01:09:44.651Z,0.00
2019-03-15T01:10:44.656Z,0.00
2019-03-15T01:11:45.694Z,0.00
2019-03-15T01:12:44.629Z,0.00
2019-03-15T01:13:44.613Z,0.00
2019-03-15T01:14:44.609Z,0.00
2019-03-15T01:15:44.588Z,0.00
2019-03-15T01:16:44.609Z,0.00
2019-03-15T01:17:44.562Z,0.00
2019-03-15T01:18:44.691Z,0.00
2019-03-15T01:19:44.578Z,0.00
2019-03-15T01:20:44.553Z,0.00
2019-03-15T01:21:44.551Z,0.00
2019-03-15T01:22:44.590Z,0.00
2019-03-15T01:23:44.493Z,0.00
2019-03-15T01:24:44.496Z,0.00
2019-03-15T01:25:44.472Z,0.00
2019-03-15T01:26:44.539Z,0.00
2019-03-15T01:27:44.472Z,0.00
2019-03-15T01:28:44.462Z,0.00
2019-03-15T01:29:44.433Z,0.00
2019-03-15T01:30:44.447Z,0.00
2019-03-15T01:31:44.422Z,0.00
2019-03-15T01:32:44.412Z,0.00
2019-03-15T01:33:44.392Z,0.00
2019-03-15T01:34:44.373Z,0.00
2019-03-15T01:35:44.368Z,0.00
2019-03-15T01:36:44.351Z,0.00
2019-03-15T01:37:44.357Z,0.00
2019-03-15T01:38:44.385Z,0.00
2019-03-15T01:39:44.331Z,0.00
2019-03-15T01:40:44.306Z,0.00
2019-03-15T01:41:44.296Z,0.00
2019-03-15T01:42:44.289Z,0.00
2019-03-15T01:43:44.291Z,0.00
2019-03-15T01:44:44.306Z,0.00
2019-03-15T01:45:44.247Z,0.00
2019-03-15T01:46:44.241Z,0.00
2019-03-15T01:47:44.233Z,0.00
2019-03-15T01:48:44.215Z,0.00
2019-03-15T01:49:45.186Z,0.00
2019-03-15T01:50:44.222Z,0.00
2019-03-15T01:51:44.181Z,0.00
2019-03-15T01:52:44.190Z,0.00
2019-03-15T01:53:44.165Z,0.00
2019-03-15T01:54:44.172Z,0.00
2019-03-15T01:55:44.160Z,0.00
2019-03-15T01:56:44.124Z,0.00
2019-03-15T01:57:44.140Z,0.00
2019-03-15T01:58:44.112Z,0.00
2019-03-15T01:59:44.092Z,0.00
2019-03-15T02:00:44.102Z,0.00
2019-03-15T02:01:44.079Z,0.00
2019-03-15T02:02:44.106Z,0.00
2019-03-15T02:03:44.060Z,0.00
2019-03-15T02:04:44.039Z,0.00
2019-03-15T02:05:44.026Z,0.00
2019-03-15T02:06:44.018Z,0.00
2019-03-15T02:07:44.017Z,0.00
2019-03-15T02:08:44.029Z,0.00
2019-03-15T02:09:44.481Z,0.00
2019-03-15T02:10:43.974Z,0.00
2019-03-15T02:11:43.988Z,0.00
2019-03-15T02:12:44.049Z,0.00
2019-03-15T02:13:43.965Z,0.00
2019-03-15T02:14:44.043Z,0.00
2019-03-15T02:15:43.921Z,0.00
2019-03-15T02:16:43.942Z,0.00
2019-03-15T02:17:43.928Z,0.00
2019-03-15T02:18:44.400Z,0.00
2019-03-15T02:19:43.974Z,0.00
2019-03-15T02:20:43.864Z,0.00
2019-03-15T02:21:43.861Z,0.00
2019-03-15T02:22:43.841Z,0.00
2019-03-15T02:23:43.864Z,0.00
2019-03-15T02:24:43.817Z,0.00
2019-03-15T02:25:43.824Z,0.00
2019-03-15T02:26:43.805Z,0.00
2019-03-15T02:27:43.798Z,0.00
2019-03-15T02:28:43.776Z,0.00
2019-03-15T02:29:43.861Z,0.00
2019-03-15T02:30:43.775Z,0.00
2019-03-15T02:31:43.744Z,0.00
2019-03-15T02:32:43.745Z,0.00
2019-03-15T02:33:43.747Z,0.00
2019-03-15T02:34:43.708Z,0.00
2019-03-15T02:35:43.703Z,0.00
2019-03-15T02:36:43.690Z,0.00
2019-03-15T02:37:43.672Z,0.00
2019-03-15T02:38:43.678Z,0.00
2019-03-15T02:39:43.658Z,0.00
2019-03-15T02:40:43.639Z,0.00
2019-03-15T02:41:43.683Z,0.00
2019-03-15T02:42:43.637Z,0.00
2019-03-15T02:43:43.605Z,0.00
2019-03-15T02:44:43.600Z,0.00
2019-03-15T02:45:43.593Z,0.00
2019-03-15T02:46:43.572Z,0.00
2019-03-15T02:47:43.575Z,0.00
2019-03-15T02:48:43.568Z,0.00
2019-03-15T02:49:43.541Z,0.00
2019-03-15T02:50:43.536Z,0.00
2019-03-15T02:51:43.523Z,0.00
2019-03-15T02:52:43.573Z,0.00
2019-03-15T02:53:43.499Z,0.00
2019-03-15T02:54:43.490Z,0.00
2019-03-15T02:55:43.474Z,0.00
2019-03-15T02:56:43.521Z,0.00
2019-03-15T02:57:43.493Z,0.00
2019-03-15T02:58:43.449Z,0.00
2019-03-15T02:59:43.445Z,0.00
2019-03-15T03:00:43.451Z,0.00
2019-03-15T03:01:43.406Z,0.00
2019-03-15T03:02:43.430Z,0.00
2019-03-15T03:03:43.405Z,0.00
2019-03-15T03:04:43.371Z,0.00
2019-03-15T03:05:43.364Z,0.00
2019-03-15T03:06:43.351Z,0.00
2019-03-15T03:07:43.345Z,0.00
2019-03-15T03:08:43.358Z,0.00
2019-03-15T03:09:43.332Z,0.00
2019-03-15T03:10:43.314Z,0.00
2019-03-15T03:11:43.303Z,0.00
2019-03-15T03:12:43.990Z,0.00
2019-03-15T03:13:43.278Z,0.00
2019-03-15T03:14:43.281Z,0.00
2019-03-15T03:15:43.251Z,0.00
2019-03-15T03:16:43.243Z,0.00
2019-03-15T03:17:43.234Z,0.00
2019-03-15T03:18:43.239Z,0.00
2019-03-15T03:19:43.223Z,0.00
2019-03-15T03:20:43.203Z,0.00
2019-03-15T03:21:43.195Z,0.00
2019-03-15T03:22:43.176Z,0.00
2019-03-15T03:23:43.185Z,0.00
2019-03-15T03:24:43.152Z,0.00
2019-03-15T03:25:44.429Z,0.00
2019-03-15T03:26:43.165Z,0.00
2019-03-15T03:27:43.120Z,0.00
2019-03-15T03:28:43.113Z,0.00
2019-03-15T03:29:43.119Z,0.00
2019-03-15T03:30:45.826Z,0.00
2019-03-15T03:31:44.445Z,0.00
2019-03-15T03:32:44.533Z,0.00
2019-03-15T03:33:43.079Z,0.00
2019-03-15T03:34:43.053Z,0.00
2019-03-15T03:35:43.045Z,0.00
2019-03-15T03:36:43.027Z,0.00
2019-03-15T03:37:43.061Z,0.00
2019-03-15T03:38:42.998Z,0.00
2019-03-15T03:39:42.984Z,0.00
2019-03-15T03:40:42.984Z,0.00
2019-03-15T03:41:42.990Z,0.00
2019-03-15T03:42:42.960Z,0.00
2019-03-15T03:43:42.945Z,0.00
2019-03-15T03:44:42.929Z,0.00
2019-03-15T03:45:43.549Z,0.00
2019-03-15T03:46:42.917Z,0.00
2019-03-15T03:47:43.440Z,0.00
2019-03-15T03:48:42.892Z,0.00
2019-03-15T03:49:42.884Z,0.00
2019-03-15T03:50:43.458Z,0.00
2019-03-15T03:51:42.853Z,0.00
2019-03-15T03:52:42.861Z,0.00
2019-03-15T03:53:42.831Z,0.00
2019-03-15T03:54:42.846Z,0.00
2019-03-15T03:55:42.821Z,0.00
2019-03-15T03:56:43.432Z,0.00
2019-03-15T03:57:42.818Z,0.00
2019-03-15T03:58:42.784Z,0.00
2019-03-15T03:59:42.779Z,0.00
2019-03-15T04:00:42.769Z,0.00
2019-03-15T04:01:42.923Z,0.00
2019-03-15T04:02:42.730Z,0.00
2019-03-15T04:03:42.745Z,0.00
2019-03-15T04:04:42.744Z,0.00
2019-03-15T04:05:42.703Z,0.00
2019-03-15T04:06:42.689Z,0.00
2019-03-15T04:07:42.673Z,0.00
2019-03-15T04:08:42.678Z,0.00
2019-03-15T04:09:42.680Z,0.00
2019-03-15T04:10:42.640Z,0.00
2019-03-15T04:11:54.884Z,0.00
2019-03-15T04:12:43.623Z,0.00
2019-03-15T04:13:42.607Z,0.00
2019-03-15T04:14:42.642Z,0.00
2019-03-15T04:15:42.587Z,0.00
2019-03-15T04:16:42.574Z,0.00
2019-03-15T04:17:42.592Z,0.00
2019-03-15T04:18:42.551Z,0.00
2019-03-15T04:19:42.554Z,0.00
2019-03-15T04:20:42.681Z,0.00
2019-03-15T04:21:42.526Z,0.00
2019-03-15T04:22:42.508Z,0.00
2019-03-15T04:23:42.516Z,0.00
2019-03-15T04:24:42.521Z,0.00
2019-03-15T04:25:42.480Z,0.00
2019-03-15T04:26:42.486Z,0.00
2019-03-15T04:27:42.454Z,0.00
2019-03-15T04:28:42.448Z,0.00
2019-03-15T04:29:42.438Z,0.00
2019-03-15T04:30:42.431Z,0.00
2019-03-15T04:31:42.421Z,0.00
2019-03-15T04:32:42.409Z,0.00
2019-03-15T04:33:42.385Z,0.00
2019-03-15T04:34:42.374Z,0.00
2019-03-15T04:35:42.385Z,0.00
2019-03-15T04:36:42.378Z,0.00
2019-03-15T04:37:42.360Z,0.00
2019-03-15T04:38:42.344Z,0.00
2019-03-15T04:39:42.338Z,0.00
2019-03-15T04:40:42.330Z,0.00
2019-03-15T04:41:42.313Z,0.00
2019-03-15T04:42:42.296Z,0.00
2019-03-15T04:43:42.273Z,0.00
2019-03-15T04:44:42.294Z,0.00
2019-03-15T04:45:42.299Z,0.00
2019-03-15T04:46:42.251Z,0.00
2019-03-15T04:47:43.597Z,0.00
2019-03-15T04:48:42.239Z,0.00
2019-03-15T04:49:42.210Z,0.00
2019-03-15T04:50:42.199Z,0.00
2019-03-15T04:51:42.203Z,0.00
2019-03-15T04:52:42.182Z,0.00
2019-03-15T04:53:42.166Z,0.00
2019-03-15T04:54:42.175Z,0.00
2019-03-15T04:55:42.149Z,0.00
2019-03-15T04:56:42.152Z,0.00
2019-03-15T04:57:42.134Z,0.00
2019-03-15T04:58:42.120Z,0.00
2019-03-15T04:59:42.097Z,0.00
2019-03-15T05:00:42.088Z,0.00
2019-03-15T05:01:42.084Z,0.00
2019-03-15T05:02:42.231Z,0.00
2019-03-15T05:03:42.112Z,0.00
2019-03-15T05:04:42.048Z,0.00
2019-03-15T05:05:42.071Z,0.00
2019-03-15T05:06:42.037Z,0.00
2019-03-15T05:07:42.018Z,0.00
2019-03-15T05:08:42.009Z,0.00
2019-03-15T05:09:42.018Z,0.00
2019-03-15T05:10:42.052Z,0.00
2019-03-15T05:11:41.969Z,0.00
2019-03-15T05:12:41.967Z,0.00
2019-03-15T05:13:41.950Z,0.00
2019-03-15T05:14:42.010Z,0.00
2019-03-15T05:15:41.947Z,0.00
2019-03-15T05:16:41.940Z,0.00
2019-03-15T05:17:41.993Z,4.00
2019-03-15T05:18:41.891Z,4.00
2019-03-15T05:19:41.881Z,4.00
2019-03-15T05:20:41.872Z,4.00
2019-03-15T05:21:41.882Z,4.00
2019-03-15T05:22:41.846Z,4.00
2019-03-15T05:23:41.836Z,4.00
2019-03-15T05:24:41.823Z,8.00
2019-03-15T05:25:41.815Z,8.00
2019-03-15T05:26:41.798Z,8.00
2019-03-15T05:27:41.804Z,8.00
2019-03-15T05:28:41.782Z,12.00
2019-03-15T05:29:41.766Z,12.00
2019-03-15T05:30:41.772Z,16.00
2019-03-15T05:31:41.750Z,16.00
2019-03-15T05:32:41.740Z,16.00
2019-03-15T05:33:41.742Z,20.00
2019-03-15T05:34:41.740Z,32.00
2019-03-15T05:35:41.698Z,32.00
2019-03-15T05:36:41.706Z,40.00
2019-03-15T05:37:41.700Z,44.00
2019-03-15T05:38:41.664Z,44.00
2019-03-15T05:39:41.662Z,40.00
2019-03-15T05:40:41.643Z,40.00
2019-03-15T05:41:41.671Z,44.00
2019-03-15T05:42:41.633Z,44.00
2019-03-15T05:43:41.710Z,44.00
2019-03-15T05:44:41.599Z,44.00
2019-03-15T05:45:41.606Z,44.00
2019-03-15T05:46:41.576Z,48.00
2019-03-15T05:47:41.565Z,48.00
2019-03-15T05:48:41.564Z,52.00
2019-03-15T05:49:41.556Z,52.00
2019-03-15T05:50:41.562Z,44.00
2019-03-15T05:51:41.530Z,44.00
2019-03-15T05:52:41.512Z,60.00
2019-03-15T05:53:41.500Z,60.00
2019-03-15T05:54:41.509Z,56.00
2019-03-15T05:55:41.479Z,52.00
2019-03-15T05:56:41.494Z,60.00
2019-03-15T05:57:41.463Z,72.00
2019-03-15T05:58:41.468Z,56.00
2019-03-15T05:59:41.455Z,64.00
2019-03-15T06:00:41.434Z,76.00
2019-03-15T06:01:41.425Z,68.00
2019-03-15T06:02:41.402Z,84.00
2019-03-15T06:03:48.660Z,96.00
2019-03-15T06:04:42.375Z,104.00
2019-03-15T06:05:41.377Z,104.00
2019-03-15T06:06:41.367Z,104.00
2019-03-15T06:07:41.349Z,108.00
2019-03-15T06:08:41.340Z,112.00
2019-03-15T06:09:41.328Z,108.00
2019-03-15T06:10:41.323Z,88.00
2019-03-15T06:11:41.306Z,80.00
2019-03-15T06:12:41.334Z,112.00
2019-03-15T06:13:41.291Z,128.00
2019-03-15T06:14:41.267Z,120.00
2019-03-15T06:15:41.283Z,120.00
2019-03-15T06:16:41.256Z,112.00
2019-03-15T06:17:41.241Z,120.00
2019-03-15T06:18:41.236Z,104.00
2019-03-15T06:19:41.241Z,112.00
2019-03-15T06:20:41.203Z,100.00
2019-03-15T06:21:41.197Z,96.00
2019-03-15T06:22:41.184Z,80.00
2019-03-15T06:23:41.185Z,68.00
2019-03-15T06:24:41.156Z,72.00
2019-03-15T06:25:41.152Z,68.00
2019-03-15T06:26:41.140Z,84.00
2019-03-15T06:27:41.126Z,76.00
2019-03-15T06:28:41.122Z,124.00
2019-03-15T06:29:41.109Z,116.00
2019-03-15T06:30:41.099Z,116.00
2019-03-15T06:31:41.086Z,120.00
2019-03-15T06:32:41.080Z,140.00
2019-03-15T06:33:41.063Z,152.00
2019-03-15T06:34:41.065Z,136.00
2019-03-15T06:35:41.080Z,176.00
2019-03-15T06:36:41.035Z,200.00
2019-03-15T06:37:41.009Z,208.00
2019-03-15T06:38:41.013Z,200.00
2019-03-15T06:39:40.995Z,192.00
2019-03-15T06:40:40.989Z,192.00
2019-03-15T06:41:40.969Z,204.00
2019-03-15T06:42:40.965Z,232.00
2019-03-15T06:43:40.949Z,260.00
2019-03-15T06:44:40.937Z,276.00
2019-03-15T06:45:41.991Z,292.00
2019-03-15T06:46:40.913Z,292.00
2019-03-15T06:47:40.910Z,272.00
2019-03-15T06:48:40.929Z,268.00
2019-03-15T06:49:40.917Z,284.00
2019-03-15T06:50:40.872Z,288.00
2019-03-15T06:51:40.862Z,264.00
2019-03-15T06:52:40.845Z,316.00
2019-03-15T06:53:40.842Z,340.00
2019-03-15T06:54:40.854Z,308.00
2019-03-15T06:55:40.821Z,364.00
2019-03-15T06:56:40.816Z,428.00
2019-03-15T06:57:40.822Z,332.00
2019-03-15T06:58:40.788Z,340.00
2019-03-15T06:59:40.770Z,412.00
2019-03-15T07:00:40.764Z,440.00
2019-03-15T07:01:40.747Z,536.00
2019-03-15T07:02:41.107Z,492.00
2019-03-15T07:03:40.727Z,416.00
2019-03-15T07:04:40.713Z,408.00
2019-03-15T07:05:40.704Z,364.00
2019-03-15T07:06:40.717Z,352.00
2019-03-15T07:07:40.680Z,336.00
2019-03-15T07:08:40.676Z,324.00
2019-03-15T07:09:40.662Z,316.00
2019-03-15T07:10:43.891Z,280.00
2019-03-15T07:11:40.643Z,252.00
2019-03-15T07:12:40.912Z,288.00
2019-03-15T07:13:40.653Z,260.00
2019-03-15T07:14:40.614Z,236.00
2019-03-15T07:15:40.597Z,204.00
2019-03-15T07:16:40.608Z,192.00
2019-03-15T07:17:41.725Z,200.00
2019-03-15T07:18:40.598Z,164.00
2019-03-15T07:19:40.555Z,152.00
2019-03-15T07:20:40.542Z,176.00
2019-03-15T07:21:40.522Z,164.00
2019-03-15T07:22:40.516Z,200.00
2019-03-15T07:23:40.508Z,224.00
2019-03-15T07:24:43.567Z,268.00
2019-03-15T07:25:40.483Z,248.00
2019-03-15T07:26:43.618Z,232.00
2019-03-15T07:27:42.625Z,240.00
2019-03-15T07:28:40.448Z,212.00
2019-03-15T07:29:40.477Z,224.00
2019-03-15T07:30:40.440Z,208.00
2019-03-15T07:31:40.496Z,244.00
2019-03-15T07:32:40.435Z,308.00
2019-03-15T07:33:40.466Z,332.00
2019-03-15T07:34:41.543Z,364.00
2019-03-15T07:35:40.385Z,428.00
2019-03-15T07:36:40.362Z,380.00
2019-03-15T07:37:40.355Z,292.00
2019-03-15T07:38:40.445Z,272.00
2019-03-15T07:39:40.347Z,236.00
2019-03-15T07:40:40.336Z,256.00
2019-03-15T07:41:40.323Z,284.00
2019-03-15T07:42:40.314Z,252.00
2019-03-15T07:43:40.324Z,312.00
2019-03-15T07:44:40.289Z,332.00
2019-03-15T07:45:40.268Z,444.00
2019-03-15T07:46:40.294Z,376.00
2019-03-15T07:47:40.322Z,444.00
2019-03-15T07:48:40.244Z,440.00
2019-03-15T07:49:40.240Z,452.00
2019-03-15T07:50:40.303Z,472.00
2019-03-15T07:51:40.197Z,452.00
2019-03-15T07:52:40.222Z,452.00
2019-03-15T07:53:40.181Z,420.00
2019-03-15T07:54:40.165Z,376.00
2019-03-15T07:55:40.161Z,348.00
2019-03-15T07:56:40.148Z,312.00
2019-03-15T07:57:40.189Z,296.00
2019-03-15T07:58:40.145Z,308.00
2019-03-15T07:59:40.142Z,280.00
2019-03-15T08:00:40.173Z,300.00
2019-03-15T08:01:40.131Z,304.00
2019-03-15T08:02:40.105Z,296.00
2019-03-15T08:03:40.091Z,300.00
2019-03-15T08:04:40.052Z,308.00
2019-03-15T08:05:40.056Z,332.00
2019-03-15T08:06:40.026Z,292.00
2019-03-15T08:07:45.163Z,332.00
2019-03-15T08:08:41.147Z,304.00
2019-03-15T08:09:39.996Z,332.00
2019-03-15T08:10:39.991Z,360.00
2019-03-15T08:11:39.992Z,444.00
2019-03-15T08:12:39.986Z,480.00
2019-03-15T08:13:39.957Z,520.00
2019-03-15T08:14:39.947Z,568.00
2019-03-15T08:15:39.935Z,576.00
2019-03-15T08:16:39.925Z,616.00
2019-03-15T08:17:39.903Z,700.00
2019-03-15T08:18:39.897Z,664.00
2019-03-15T08:19:39.903Z,664.00
2019-03-15T08:20:39.879Z,584.00
2019-03-15T08:21:39.865Z,692.00
2019-03-15T08:22:39.860Z,704.00
2019-03-15T08:23:39.861Z,708.00
2019-03-15T08:24:50.868Z,720.00
2019-03-15T08:25:40.831Z,816.00
2019-03-15T08:26:39.804Z,872.00
2019-03-15T08:27:39.806Z,900.00
2019-03-15T08:28:39.782Z,892.00
2019-03-15T08:29:39.771Z,860.00
2019-03-15T08:30:39.776Z,836.00
2019-03-15T08:31:39.750Z,772.00
2019-03-15T08:32:43.182Z,668.00
2019-03-15T08:33:39.739Z,592.00
2019-03-15T08:34:39.717Z,576.00
2019-03-15T08:35:39.714Z,392.00
2019-03-15T08:36:39.703Z,472.00
2019-03-15T08:37:39.713Z,492.00
2019-03-15T08:38:47.505Z,508.00
2019-03-15T08:39:40.665Z,456.00
2019-03-15T08:40:39.684Z,472.00
2019-03-15T08:41:39.639Z,508.00
2019-03-15T08:42:39.644Z,416.00
2019-03-15T08:43:39.653Z,360.00
2019-03-15T08:44:39.606Z,428.00
2019-03-15T08:45:39.604Z,340.00
2019-03-15T08:46:39.587Z,336.00
2019-03-15T08:47:39.575Z,396.00
2019-03-15T08:48:39.581Z,524.00
2019-03-15T08:49:39.609Z,540.00
2019-03-15T08:50:39.547Z,560.00
2019-03-15T08:51:39.533Z,572.00
2019-03-15T08:52:41.941Z,472.00
2019-03-15T08:53:39.508Z,524.00
2019-03-15T08:54:39.516Z,504.00
2019-03-15T08:55:40.103Z,544.00
2019-03-15T08:56:39.474Z,480.00
2019-03-15T08:57:39.613Z,584.00
2019-03-15T08:58:39.455Z,580.00
2019-03-15T08:59:52.381Z,552.00
2019-03-15T09:00:40.455Z,596.00
2019-03-15T09:01:39.439Z,536.00
2019-03-15T09:02:39.413Z,512.00
2019-03-15T09:03:39.411Z,632.00
2019-03-15T09:04:39.635Z,632.00
2019-03-15T09:05:39.383Z,704.00
2019-03-15T09:06:40.943Z,428.00
2019-03-15T09:07:39.354Z,560.00
2019-03-15T09:08:39.347Z,472.00
2019-03-15T09:09:39.337Z,520.00
2019-03-15T09:10:39.333Z,700.00
2019-03-15T09:11:39.328Z,652.00
2019-03-15T09:12:39.311Z,692.00
2019-03-15T09:13:39.290Z,768.00
2019-03-15T09:14:39.297Z,768.00
2019-03-15T09:15:39.291Z,828.00
2019-03-15T09:16:39.280Z,716.00
2019-03-15T09:17:39.278Z,612.00
2019-03-15T09:18:39.243Z,632.00
2019-03-15T09:19:39.224Z,624.00
2019-03-15T09:20:39.228Z,540.00
2019-03-15T09:21:39.206Z,676.00
2019-03-15T09:22:40.160Z,616.00
2019-03-15T09:23:39.189Z,596.00
2019-03-15T09:24:39.178Z,680.00
2019-03-15T09:25:39.174Z,628.00
2019-03-15T09:26:39.179Z,752.00
2019-03-15T09:27:39.149Z,812.00
2019-03-15T09:28:39.155Z,712.00
2019-03-15T09:29:39.127Z,740.00
2019-03-15T09:30:39.101Z,736.00
2019-03-15T09:31:47.586Z,588.00
2019-03-15T09:32:40.081Z,768.00
2019-03-15T09:33:39.126Z,724.00
2019-03-15T09:34:39.089Z,704.00
2019-03-15T09:35:39.054Z,700.00
2019-03-15T09:36:49.540Z,668.00
2019-03-15T09:37:40.052Z,624.00
2019-03-15T09:38:39.018Z,496.00
2019-03-15T09:39:39.009Z,592.00
2019-03-15T09:40:39.051Z,600.00
2019-03-15T09:41:40.222Z,600.00
2019-03-15T09:42:38.978Z,588.00
2019-03-15T09:43:39.022Z,460.00
2019-03-15T09:44:38.949Z,500.00
2019-03-15T09:45:39.574Z,532.00
2019-03-15T09:46:39.575Z,624.00
2019-03-15T09:47:38.917Z,616.00
2019-03-15T09:48:38.907Z,468.00
2019-03-15T09:49:38.901Z,484.00
2019-03-15T09:50:50.660Z,476.00
2019-03-15T09:51:39.950Z,608.00
2019-03-15T09:52:38.865Z,644.00
2019-03-15T09:53:38.857Z,672.00
2019-03-15T09:54:38.859Z,552.00
2019-03-15T09:55:38.914Z,560.00
2019-03-15T09:56:38.822Z,568.00
2019-03-15T09:57:38.810Z,624.00
2019-03-15T09:58:38.826Z,560.00
2019-03-15T09:59:38.823Z,564.00
2019-03-15T10:00:38.780Z,628.00
2019-03-15T10:01:38.781Z,568.00
2019-03-15T10:02:38.752Z,632.00
2019-03-15T10:03:38.801Z,668.00
2019-03-15T10:04:38.767Z,644.00
2019-03-15T10:05:38.748Z,616.00
2019-03-15T10:06:38.777Z,652.00
2019-03-15T10:07:40.332Z,664.00
2019-03-15T10:08:38.717Z,664.00
2019-03-15T10:09:45.737Z,756.00
2019-03-15T10:10:39.662Z,708.00
2019-03-15T10:11:38.679Z,724.00
2019-03-15T10:12:38.663Z,752.00
2019-03-15T10:13:38.661Z,700.00
2019-03-15T10:14:38.644Z,712.00
2019-03-15T10:15:39.636Z,668.00
2019-03-15T10:16:41.628Z,692.00
2019-03-15T10:17:39.127Z,580.00
2019-03-15T10:18:38.589Z,816.00
2019-03-15T10:19:38.602Z,788.00
2019-03-15T10:20:38.582Z,848.00
2019-03-15T10:21:38.585Z,852.00
2019-03-15T10:22:38.536Z,764.00
2019-03-15T10:23:38.543Z,800.00
2019-03-15T10:24:38.533Z,688.00
2019-03-15T10:25:46.938Z,684.00
2019-03-15T10:26:39.539Z,600.00
2019-03-15T10:27:38.475Z,636.00
2019-03-15T10:28:38.489Z,532.00
2019-03-15T10:29:38.478Z,596.00
2019-03-15T10:30:38.524Z,800.00
2019-03-15T10:31:38.443Z,684.00
2019-03-15T10:32:39.092Z,532.00
2019-03-15T10:33:49.771Z,652.00
2019-03-15T10:34:39.399Z,780.00
2019-03-15T10:35:38.383Z,784.00
2019-03-15T10:36:38.409Z,764.00
2019-03-15T10:37:38.373Z,804.00
2019-03-15T10:38:38.365Z,784.00
2019-03-15T10:39:38.411Z,712.00
2019-03-15T10:40:38.357Z,836.00
2019-03-15T10:41:38.517Z,764.00
2019-03-15T10:42:38.322Z,712.00
2019-03-15T10:43:38.296Z,620.00
2019-03-15T10:44:38.318Z,680.00
2019-03-15T10:45:38.302Z,776.00
2019-03-15T10:46:38.288Z,736.00
2019-03-15T10:47:38.269Z,688.00
2019-03-15T10:48:38.264Z,756.00
2019-03-15T10:49:38.269Z,756.00
2019-03-15T10:50:38.225Z,680.00
2019-03-15T10:51:38.246Z,684.00
2019-03-15T10:52:38.231Z,772.00
2019-03-15T10:53:38.199Z,736.00
2019-03-15T10:54:38.190Z,784.00
2019-03-15T10:55:38.209Z,740.00
2019-03-15T10:56:38.184Z,800.00
2019-03-15T10:57:38.148Z,864.00
2019-03-15T10:58:38.156Z,948.00
2019-03-15T10:59:38.157Z,960.00
2019-03-15T11:00:38.142Z,952.00
2019-03-15T11:01:38.124Z,1004.00
2019-03-15T11:02:38.103Z,1024.00
2019-03-15T11:03:38.081Z,1020.00
2019-03-15T11:04:38.092Z,1004.00
2019-03-15T11:05:38.084Z,1016.00
2019-03-15T11:06:38.079Z,1000.00
2019-03-15T11:07:38.034Z,988.00
2019-03-15T11:08:38.049Z,964.00
2019-03-15T11:09:38.045Z,952.00
2019-03-15T11:10:38.000Z,980.00
2019-03-15T11:11:38.077Z,952.00
2019-03-15T11:12:38.026Z,916.00
2019-03-15T11:13:37.982Z,900.00
2019-03-15T11:14:37.987Z,796.00
2019-03-15T11:15:37.959Z,844.00
2019-03-15T11:16:38.007Z,812.00
2019-03-15T11:17:37.983Z,800.00
2019-03-15T11:18:37.909Z,752.00
2019-03-15T11:19:38.130Z,744.00
2019-03-15T11:20:37.910Z,708.00
2019-03-15T11:21:37.878Z,788.00
2019-03-15T11:22:37.956Z,788.00
2019-03-15T11:23:37.895Z,732.00
2019-03-15T11:24:37.886Z,760.00
2019-03-15T11:25:37.837Z,804.00
2019-03-15T11:26:38.599Z,800.00
2019-03-15T11:27:37.812Z,664.00
2019-03-15T11:28:37.796Z,640.00
2019-03-15T11:29:37.809Z,636.00
2019-03-15T11:30:37.808Z,788.00
2019-03-15T11:31:37.773Z,768.00
2019-03-15T11:32:37.803Z,800.00
2019-03-15T11:33:37.772Z,764.00
2019-03-15T11:34:37.766Z,736.00
2019-03-15T11:35:37.736Z,732.00
2019-03-15T11:36:37.709Z,796.00
2019-03-15T11:37:37.869Z,740.00
2019-03-15T11:38:37.701Z,616.00
2019-03-15T11:39:37.681Z,620.00
2019-03-15T11:40:38.147Z,724.00
2019-03-15T11:41:37.655Z,956.00
2019-03-15T11:42:37.685Z,992.00
2019-03-15T11:43:37.633Z,736.00
2019-03-15T11:44:37.616Z,576.00
2019-03-15T11:45:37.624Z,576.00
2019-03-15T11:46:37.623Z,732.00
2019-03-15T11:47:56.430Z,1080.00
2019-03-15T11:48:38.574Z,1080.00
2019-03-15T11:49:37.588Z,856.00
2019-03-15T11:50:37.572Z,724.00
2019-03-15T11:51:37.548Z,744.00
2019-03-15T11:52:37.530Z,904.00
2019-03-15T11:53:37.556Z,1116.00
2019-03-15T11:54:37.515Z,1340.00
2019-03-15T11:55:37.498Z,1276.00
2019-03-15T11:56:37.499Z,1216.00
2019-03-15T11:57:37.502Z,1184.00
2019-03-15T11:58:37.523Z,1064.00
2019-03-15T11:59:37.463Z,968.00
2019-03-15T12:00:38.139Z,984.00
2019-03-15T12:01:37.834Z,932.00
2019-03-15T12:02:37.465Z,960.00
2019-03-15T12:03:37.414Z,924.00
2019-03-15T12:04:37.451Z,868.00
2019-03-15T12:05:38.141Z,872.00
2019-03-15T12:06:37.406Z,856.00
2019-03-15T12:07:37.374Z,932.00
2019-03-15T12:08:37.369Z,936.00
2019-03-15T12:09:37.375Z,856.00
2019-03-15T12:10:37.347Z,836.00
2019-03-15T12:11:37.324Z,860.00
2019-03-15T12:12:37.345Z,856.00
2019-03-15T12:13:37.327Z,788.00
2019-03-15T12:14:41.333Z,788.00
2019-03-15T12:15:37.287Z,776.00
2019-03-15T12:16:37.493Z,688.00
2019-03-15T12:17:37.325Z,524.00
2019-03-15T12:18:37.247Z,448.00
2019-03-15T12:19:37.254Z,464.00
2019-03-15T12:20:37.250Z,548.00
2019-03-15T12:21:37.223Z,716.00
2019-03-15T12:22:37.250Z,764.00
2019-03-15T12:23:37.249Z,688.00
2019-03-15T12:24:37.190Z,664.00
2019-03-15T12:25:37.228Z,636.00
2019-03-15T12:26:40.483Z,592.00
2019-03-15T12:27:37.163Z,588.00
2019-03-15T12:28:37.150Z,564.00
2019-03-15T12:29:37.148Z,572.00
2019-03-15T12:30:37.114Z,544.00
2019-03-15T12:31:37.150Z,520.00
2019-03-15T12:32:37.107Z,620.00
2019-03-15T12:33:37.084Z,660.00
2019-03-15T12:34:37.079Z,572.00
2019-03-15T12:35:37.077Z,512.00
2019-03-15T12:36:37.039Z,456.00
2019-03-15T12:37:37.115Z,408.00
2019-03-15T12:38:37.050Z,448.00
2019-03-15T12:39:37.023Z,520.00
2019-03-15T12:40:37.064Z,560.00
2019-03-15T12:41:37.037Z,492.00
2019-03-15T12:42:37.079Z,724.00
2019-03-15T12:43:36.995Z,808.00
2019-03-15T12:44:36.994Z,748.00
2019-03-15T12:45:36.959Z,644.00
2019-03-15T12:46:36.991Z,584.00
2019-03-15T12:47:36.924Z,704.00
2019-03-15T12:48:36.929Z,616.00
2019-03-15T12:49:37.017Z,676.00